createdAt,value
2019-05-12T00:02:11.511Z,73.10
2019-05-12T00:06:14.982Z,72.85
2019-05-12T00:10:18.706Z,72.90
2019-05-12T00:14:22.197Z,72.91
2019-05-12T00:18:25.671Z,72.89
2019-05-12T00:22:31.135Z,73.17
2019-05-12T00:26:34.610Z,73.51
2019-05-12T00:30:39.729Z,73.37
2019-05-12T00:34:48.046Z,73.30
2019-05-12T00:38:51.130Z,73.23
2019-05-12T00:42:54.599Z,73.45
2019-05-12T00:46:58.085Z,73.31
2019-05-12T00:51:01.851Z,73.24
2019-05-12T00:55:07.932Z,73.22
2019-05-12T00:59:11.384Z,73.41
2019-05-12T01:03:14.868Z,73.47
2019-05-12T01:07:18.465Z,73.69
2019-05-12T01:11:22.169Z,73.44
2019-05-12T01:15:25.643Z,73.59
2019-05-12T01:19:29.122Z,73.28
2019-05-12T01:23:32.599Z,73.31
2019-05-12T01:27:38.103Z,73.13
2019-05-12T01:31:42.919Z,73.14
2019-05-12T01:35:48.282Z,73.03
2019-05-12T01:39:59.738Z,73.21
2019-05-12T01:44:00.455Z,73.36
2019-05-12T01:48:03.942Z,73.37
2019-05-12T01:52:08.685Z,73.54
2019-05-12T01:56:12.179Z,73.98
2019-05-12T02:00:18.281Z,74.05
2019-05-12T02:04:21.550Z,74.31
2019-05-12T02:08:32.720Z,74.58
2019-05-12T02:12:38.352Z,74.92
2019-05-12T02:16:41.708Z,75.38
2019-05-12T02:20:45.186Z,75.49
2019-05-12T02:24:49.038Z,75.58
2019-05-12T02:28:52.518Z,75.78
2019-05-12T02:32:59.162Z,75.85
2019-05-12T02:37:04.987Z,75.91
2019-05-12T02:41:06.414Z,76.00
2019-05-12T02:45:10.540Z,76.09
2019-05-12T02:49:15.687Z,75.99
2019-05-12T02:53:19.224Z,75.78
2019-05-12T02:57:25.719Z,75.99
2019-05-12T03:01:29.930Z,75.81
2019-05-12T03:05:35.535Z,75.85
2019-05-12T03:09:40.403Z,75.92
2019-05-12T03:13:44.948Z,76.12
2019-05-12T03:17:50.071Z,76.21
2019-05-12T03:21:54.756Z,76.40
2019-05-12T03:25:58.474Z,76.61
2019-05-12T03:30:06.291Z,76.72
2019-05-12T03:34:10.261Z,76.44
2019-05-12T03:38:14.921Z,76.49
2019-05-12T03:42:17.911Z,76.43
2019-05-12T03:46:24.548Z,76.36
2019-05-12T03:50:26.629Z,76.38
2019-05-12T03:54:30.113Z,76.16
2019-05-12T03:58:34.628Z,75.96
2019-05-12T04:02:38.396Z,75.68
2019-05-12T04:06:44.978Z,75.46
2019-05-12T04:10:47.036Z,75.75
2019-05-12T04:14:51.092Z,75.88
2019-05-12T04:18:55.337Z,75.72
2019-05-12T04:22:59.229Z,75.48
2019-05-12T04:27:05.379Z,75.23
2019-05-12T04:31:08.260Z,74.82
2019-05-12T04:35:14.788Z,74.57
2019-05-12T04:39:18.766Z,74.71
2019-05-12T04:43:25.311Z,74.27
2019-05-12T04:47:27.880Z,74.27
2019-05-12T04:51:34.675Z,73.54
2019-05-12T04:55:36.960Z,73.71
2019-05-12T04:59:40.523Z,73.34
2019-05-12T05:03:44.370Z,72.80
2019-05-12T05:07:50.009Z,72.24
2019-05-12T05:11:54.391Z,71.91
2019-05-12T05:15:57.941Z,71.80
2019-05-12T05:20:03.951Z,72.01
2019-05-12T05:24:06.782Z,71.51
2019-05-12T05:28:10.333Z,70.49
2019-05-12T05:32:14.108Z,70.08
2019-05-12T05:36:19.838Z,70.16
2019-05-12T05:40:25.977Z,69.58
2019-05-12T05:44:29.154Z,69.02
2019-05-12T05:48:35.188Z,68.60
2019-05-12T05:52:38.945Z,68.53
2019-05-12T05:56:50.682Z,68.51
2019-05-12T06:00:48.080Z,67.24
2019-05-12T06:04:54.092Z,66.43
2019-05-12T06:08:58.377Z,64.79
2019-05-12T06:13:04.111Z,65.30
2019-05-12T06:17:07.312Z,63.75
2019-05-12T06:21:10.885Z,60.65
2019-05-12T06:25:16.264Z,60.65
2019-05-12T06:29:21.941Z,60.99
2019-05-12T06:33:31.479Z,61.62
2019-05-12T06:37:30.366Z,62.08
2019-05-12T06:41:34.190Z,59.43
2019-05-12T06:45:42.657Z,59.90
2019-05-12T06:49:43.977Z,57.21
2019-05-12T06:53:47.640Z,53.29
2019-05-12T06:57:53.884Z,50.11
2019-05-12T07:02:00.444Z,41.62
2019-05-12T07:06:04.084Z,38.03
2019-05-12T07:10:13.079Z,36.27
2019-05-12T07:14:22.670Z,36.77
2019-05-12T07:18:26.122Z,35.86
2019-05-12T07:22:26.005Z,36.78
2019-05-12T07:26:29.434Z,37.27
2019-05-12T07:30:35.133Z,32.11
2019-05-12T07:34:38.635Z,31.93
2019-05-12T07:38:44.002Z,30.83
2019-05-12T07:42:50.457Z,28.74
2019-05-12T07:46:54.216Z,27.99
2019-05-12T07:51:00.532Z,29.15
2019-05-12T07:55:04.297Z,27.35
2019-05-12T07:59:07.928Z,27.41
2019-05-12T08:03:15.943Z,28.42
2019-05-12T08:07:19.792Z,26.92
2019-05-12T08:11:23.613Z,27.66
2019-05-12T08:15:27.094Z,27.52
2019-05-12T08:19:30.581Z,27.50
2019-05-12T08:23:37.440Z,26.79
2019-05-12T08:27:45.368Z,25.32
2019-05-12T08:31:44.831Z,23.95
2019-05-12T08:35:48.381Z,24.10
2019-05-12T08:39:53.250Z,25.91
2019-05-12T08:43:58.474Z,23.90
2019-05-12T08:48:03.849Z,25.55
2019-05-12T08:52:07.555Z,24.76
2019-05-12T08:56:14.729Z,24.25
2019-05-12T09:00:19.789Z,25.58
2019-05-12T09:04:24.778Z,23.81
2019-05-12T09:08:29.556Z,22.88
2019-05-12T09:12:34.619Z,24.27
2019-05-12T09:16:38.095Z,23.95
2019-05-12T09:20:48.733Z,24.00
2019-05-12T09:24:46.827Z,24.10
2019-05-12T09:28:50.577Z,23.46
2019-05-12T09:32:56.094Z,23.27
2019-05-12T09:37:01.059Z,23.54
2019-05-12T09:41:05.513Z,21.05
2019-05-12T09:45:10.534Z,25.37
2019-05-12T09:49:14.329Z,22.44
2019-05-12T09:53:17.918Z,21.93
2019-05-12T09:57:23.803Z,24.07
2019-05-12T10:01:29.279Z,21.48
2019-05-12T10:05:39.190Z,19.95
2019-05-12T10:09:37.690Z,22.43
2019-05-12T10:13:41.176Z,22.59
2019-05-12T10:17:44.642Z,23.01
2019-05-12T10:21:49.148Z,24.16
2019-05-12T10:25:53.876Z,23.22
2019-05-12T10:29:57.350Z,22.20
2019-05-12T10:34:19.164Z,23.48
2019-05-12T10:38:24.137Z,22.64
2019-05-12T10:42:27.769Z,25.79
2019-05-12T10:46:31.253Z,24.66
2019-05-12T10:50:34.785Z,24.68
2019-05-12T10:54:43.323Z,24.99
2019-05-12T10:58:46.116Z,26.99
2019-05-12T11:02:49.585Z,25.86
2019-05-12T11:06:53.995Z,26.02
2019-05-12T11:11:00.972Z,29.88
2019-05-12T11:15:06.602Z,31.92
2019-05-12T11:19:10.676Z,32.90
2019-05-12T11:23:14.559Z,34.72
2019-05-12T11:27:20.727Z,32.16
2019-05-12T11:31:24.428Z,33.71
2019-05-12T11:35:28.083Z,31.12
2019-05-12T11:39:36.732Z,34.72
2019-05-12T11:43:36.760Z,29.94
2019-05-12T11:47:40.237Z,32.33
2019-05-12T11:51:43.683Z,31.22
2019-05-12T11:55:47.168Z,33.60
2019-05-12T12:00:02.283Z,33.56
2019-05-12T12:03:58.868Z,31.66
2019-05-12T12:08:03.957Z,29.90
2019-05-12T12:12:08.078Z,30.00
2019-05-12T12:16:13.997Z,31.56
2019-05-12T12:20:22.493Z,27.93
2019-05-12T12:24:29.814Z,29.43
2019-05-12T12:28:29.088Z,29.00
2019-05-12T12:32:33.939Z,30.74
2019-05-12T12:36:37.463Z,31.69
2019-05-12T12:40:41.147Z,29.00
2019-05-12T12:44:44.700Z,30.34
2019-05-12T12:48:48.196Z,32.23
2019-05-12T12:52:53.412Z,32.17
2019-05-12T12:57:00.223Z,34.49
2019-05-12T13:01:03.682Z,33.32
2019-05-12T13:05:07.327Z,31.06
2019-05-12T13:09:18.218Z,33.20
2019-05-12T13:13:16.648Z,32.99
2019-05-12T13:17:20.113Z,31.92
2019-05-12T13:21:23.937Z,31.44
2019-05-12T13:25:27.419Z,35.14
2019-05-12T13:29:38.609Z,32.68
2019-05-12T13:33:39.263Z,31.51
2019-05-12T13:37:56.399Z,30.68
2019-05-12T13:42:00.344Z,33.22
2019-05-12T13:46:03.893Z,32.77
2019-05-12T13:50:13.315Z,32.20
2019-05-12T13:54:14.405Z,31.84
2019-05-12T13:58:18.020Z,32.46
2019-05-12T14:02:22.351Z,31.62
2019-05-12T14:06:32.058Z,31.83
2019-05-12T14:10:35.570Z,29.86
2019-05-12T14:14:38.144Z,32.82
2019-05-12T14:18:44.021Z,32.78
2019-05-12T14:22:47.018Z,32.26
2019-05-12T14:32:12.297Z,30.60
2019-05-12T14:36:21.282Z,30.87
2019-05-12T14:40:21.287Z,31.09
2019-05-12T14:44:23.814Z,31.01
2019-05-12T14:48:27.787Z,30.72
2019-05-12T14:52:33.311Z,31.26
2019-05-12T14:56:36.592Z,31.77
2019-05-12T15:00:40.535Z,33.26
2019-05-12T15:04:44.603Z,33.10
2019-05-12T15:08:48.084Z,32.44
2019-05-12T15:12:54.329Z,31.98
2019-05-12T15:16:58.042Z,34.70
2019-05-12T15:21:03.562Z,33.84
2019-05-12T15:25:07.180Z,34.53
2019-05-12T15:29:13.385Z,33.87
2019-05-12T15:33:16.321Z,34.80
2019-05-12T15:37:19.879Z,35.38
2019-05-12T15:41:23.873Z,35.07
2019-05-12T15:45:27.530Z,35.54
2019-05-12T15:49:33.470Z,37.35
2019-05-12T15:53:36.563Z,37.95
2019-05-12T15:57:40.377Z,37.61
2019-05-12T16:01:44.080Z,38.74
2019-05-12T16:05:47.526Z,37.13
2019-05-12T16:09:51.020Z,37.33
2019-05-12T16:13:59.307Z,39.36
2019-05-12T16:18:05.684Z,39.48
2019-05-12T16:22:05.116Z,38.33
2019-05-12T16:26:12.503Z,40.04
2019-05-12T16:30:14.536Z,38.76
2019-05-12T16:34:19.661Z,39.88
2019-05-12T16:38:24.242Z,41.03
2019-05-12T16:42:28.121Z,40.14
2019-05-12T16:46:33.985Z,40.38
2019-05-12T16:50:37.499Z,39.87
2019-05-12T16:54:40.996Z,39.75
2019-05-12T16:58:44.498Z,40.12
2019-05-12T17:02:52.767Z,41.83
2019-05-12T17:06:53.204Z,40.90
2019-05-12T17:11:15.102Z,41.17
2019-05-12T17:15:04.101Z,42.61
2019-05-12T17:19:10.360Z,41.55
2019-05-12T17:23:13.828Z,42.84
2019-05-12T17:27:23.959Z,42.60
2019-05-12T17:31:22.636Z,43.92
2019-05-12T17:35:31.550Z,44.73
2019-05-12T17:39:35.787Z,45.69
2019-05-12T17:43:40.000Z,45.80
2019-05-12T17:47:44.490Z,46.38
2019-05-12T17:51:47.609Z,47.35
2019-05-12T17:55:53.999Z,47.03
2019-05-12T17:59:59.780Z,47.51
2019-05-12T18:04:04.267Z,47.94
2019-05-12T18:08:08.231Z,47.58
2019-05-12T18:12:13.805Z,48.52
2019-05-12T18:16:21.898Z,47.26
2019-05-12T18:20:23.817Z,49.40
2019-05-12T18:24:27.400Z,49.12
2019-05-12T18:28:33.279Z,48.86
2019-05-12T18:32:36.531Z,49.97
2019-05-12T18:36:40.440Z,49.81
2019-05-12T18:40:44.566Z,49.81
2019-05-12T18:44:48.058Z,50.54
2019-05-12T18:48:54.305Z,51.49
2019-05-12T18:52:56.791Z,51.98
2019-05-12T18:57:07.177Z,52.05
2019-05-12T19:01:06.124Z,53.46
2019-05-12T19:05:15.359Z,53.72
2019-05-12T19:09:15.280Z,53.28
2019-05-12T19:13:18.962Z,53.93
2019-05-12T19:17:24.152Z,54.58
2019-05-12T19:21:28.170Z,55.35
2019-05-12T19:25:35.768Z,54.38
2019-05-12T19:29:45.513Z,55.08
2019-05-12T19:33:52.984Z,54.47
2019-05-12T19:37:47.639Z,54.70
2019-05-12T19:41:51.256Z,54.96
2019-05-12T19:46:03.091Z,55.02
2019-05-12T19:50:09.604Z,54.51
2019-05-12T19:54:09.742Z,55.23
2019-05-12T19:58:13.231Z,55.45
2019-05-12T20:02:16.779Z,55.89
2019-05-12T20:06:20.383Z,56.03
2019-05-12T20:10:24.565Z,56.96
2019-05-12T20:14:28.121Z,57.26
2019-05-12T20:18:36.184Z,58.16
2019-05-12T20:22:36.870Z,58.62
2019-05-12T20:26:40.370Z,59.28
2019-05-12T20:30:44.204Z,59.45
2019-05-12T20:34:53.000Z,59.30
2019-05-12T20:38:55.297Z,59.04
2019-05-12T20:43:07.813Z,59.72
2019-05-12T20:47:06.379Z,59.72
2019-05-12T20:51:15.306Z,60.15
2019-05-12T20:55:14.815Z,59.60
2019-05-12T20:59:22.129Z,60.66
2019-05-12T21:03:24.228Z,60.68
2019-05-12T21:07:27.928Z,60.54
2019-05-12T21:11:33.727Z,61.36
2019-05-12T21:15:42.543Z,61.26
2019-05-12T21:19:55.755Z,61.80
2019-05-12T21:23:54.033Z,61.73
2019-05-12T21:28:01.671Z,61.73
2019-05-12T21:32:02.962Z,61.90
2019-05-12T21:36:03.825Z,62.28
2019-05-12T21:40:08.237Z,62.47
2019-05-12T21:44:13.916Z,62.92
2019-05-12T21:48:23.798Z,62.81
2019-05-12T21:52:23.870Z,62.85
2019-05-12T21:56:27.707Z,63.29
2019-05-12T22:00:45.018Z,63.79
2019-05-12T22:04:50.036Z,64.47
2019-05-12T22:09:01.319Z,64.32
2019-05-12T22:13:09.046Z,64.93
2019-05-12T22:17:07.654Z,65.33
2019-05-12T22:21:13.490Z,65.59
2019-05-12T22:25:17.902Z,65.88
2019-05-12T22:29:27.982Z,66.25
2019-05-12T22:33:26.599Z,66.53
2019-05-12T22:37:34.859Z,66.87
2019-05-12T22:41:41.485Z,67.02
2019-05-12T22:45:44.763Z,67.34
2019-05-12T22:49:52.140Z,68.07
2019-05-12T22:53:53.937Z,68.29
2019-05-12T22:57:57.380Z,68.58
2019-05-12T23:02:01.251Z,68.63
2019-05-12T23:06:20.448Z,68.62
2019-05-12T23:10:11.192Z,68.91
2019-05-12T23:14:20.677Z,69.20
2019-05-12T23:18:26.907Z,69.18
2019-05-12T23:22:29.550Z,69.34
2019-05-12T23:26:35.595Z,69.54
2019-05-12T23:30:43.766Z,69.64
2019-05-12T23:34:54.034Z,69.96
2019-05-12T23:38:59.930Z,69.91
2019-05-12T23:42:56.462Z,70.10
2019-05-12T23:46:59.944Z,70.28
2019-05-12T23:51:03.931Z,70.54
2019-05-12T23:55:08.121Z,70.58
2019-05-12T23:59:13.509Z,70.56
